Time;durP1;ratioP1;P1;durP2;ratioP2;P2;SDS_P1;SDS_P2;PMS_P1;PMS_P2;Temp;Humidity;BMP_temperature;BMP_pressure;BME280_temperature;BME280_humidity;BME280_pressure;Samples;Min_cycle;Max_cycle;Signal;HPM_P1;HPM_P2
2020/12/01 00:00:31;;;;;;;14.43;8.47;;;;;;;;;;6222044;28;20025;-71
2020/12/01 00:03:31;;;;;;;13.60;8.63;;;;;;;;;;6225700;28;20033;-71
2020/12/01 00:06:32;;;;;;;17.33;9.33;;;;;;;;;;6251411;28;20030;-71
2020/12/01 00:09:32;;;;;;;15.33;8.23;;;;;;;;;;6220834;28;20498;-71
2020/12/01 00:12:32;;;;;;;12.40;8.77;;;;;;;;;;6220487;28;20030;-71
2020/12/01 00:15:32;;;;;;;14.33;8.23;;;;;;;;;;5876723;28;10000320;-72
2020/12/01 00:18:32;;;;;;;13.10;8.13;;;;;;;;;;6216908;28;20073;-71
2020/12/01 00:21:33;;;;;;;13.67;7.97;;;;;;;;;;6223081;28;20064;-71
2020/12/01 00:24:33;;;;;;;13.27;7.90;;;;;;;;;;6226802;28;20167;-71
2020/12/01 00:27:34;;;;;;;13.00;7.93;;;;;;;;;;6220206;28;20038;-71
2020/12/01 00:30:34;;;;;;;15.30;9.03;;;;;;;;;;6213018;28;20033;-71
2020/12/01 00:33:34;;;;;;;12.27;8.20;;;;;;;;;;6224668;28;20819;-71
2020/12/01 00:36:35;;;;;;;13.60;8.43;;;;;;;;;;6222817;28;20519;-71
2020/12/01 00:39:35;;;;;;;13.20;7.67;;;;;;;;;;6215534;28;20550;-71
2020/12/01 00:42:35;;;;;;;12.07;7.63;;;;;;;;;;6212250;28;20018;-71
2020/12/01 00:45:35;;;;;;;11.97;7.57;;;;;;;;;;6228022;28;20014;-71
2020/12/01 00:48:36;;;;;;;13.77;8.67;;;;;;;;;;6220778;28;20146;-71
2020/12/01 00:51:36;;;;;;;15.53;8.90;;;;;;;;;;6218296;28;20025;-71
2020/12/01 00:54:36;;;;;;;13.93;8.73;;;;;;;;;;6223213;28;20076;-71
2020/12/01 00:57:36;;;;;;;14.80;9.30;;;;;;;;;;6202740;28;20447;-71
2020/12/01 01:00:37;;;;;;;14.80;9.03;;;;;;;;;;6219772;28;20464;-71
2020/12/01 01:03:37;;;;;;;12.03;7.90;;;;;;;;;;6236916;28;20091;-71
2020/12/01 01:06:37;;;;;;;12.60;8.13;;;;;;;;;;6226586;28;20120;-73
2020/12/01 01:09:37;;;;;;;16.73;9.30;;;;;;;;;;6221292;28;20177;-72
2020/12/01 01:12:38;;;;;;;14.10;8.83;;;;;;;;;;6226458;28;20121;-72
2020/12/01 01:15:38;;;;;;;14.07;9.03;;;;;;;;;;6229139;28;20061;-71
2020/12/01 01:18:38;;;;;;;15.97;9.17;;;;;;;;;;6225218;28;20117;-71
2020/12/01 01:21:46;;;;;;;12.40;8.40;;;;;;;;;;6219465;28;20026;-72
2020/12/01 01:24:46;;;;;;;12.68;8.30;;;;;;;;;;6225654;28;20108;-71
2020/12/01 01:27:47;;;;;;;14.50;9.43;;;;;;;;;;6207913;28;20019;-71
2020/12/01 01:30:47;;;;;;;16.88;9.68;;;;;;;;;;6223016;28;20108;-73
2020/12/01 01:33:47;;;;;;;13.97;8.30;;;;;;;;;;6225713;28;20038;-71
2020/12/01 01:36:47;;;;;;;15.23;8.60;;;;;;;;;;6228725;28;20029;-72
2020/12/01 01:39:48;;;;;;;13.37;8.20;;;;;;;;;;6221183;28;20041;-71
2020/12/01 01:42:48;;;;;;;16.57;9.27;;;;;;;;;;6225412;28;20021;-72
2020/12/01 01:45:49;;;;;;;14.07;8.27;;;;;;;;;;6224444;28;20034;-74
2020/12/01 01:48:49;;;;;;;12.00;7.80;;;;;;;;;;6224122;28;20093;-71
2020/12/01 01:51:53;;;;;;;12.73;8.27;;;;;;;;;;6218870;28;20017;-71
2020/12/01 01:54:56;;;;;;;15.35;9.13;;;;;;;;;;6225464;28;20502;-72
2020/12/01 01:58:01;;;;;;;15.50;9.25;;;;;;;;;;6222713;28;20423;-71
2020/12/01 02:01:06;;;;;;;16.60;9.77;;;;;;;;;;6215517;28;20022;-71
2020/12/01 02:04:08;;;;;;;15.35;9.25;;;;;;;;;;6226256;28;20108;-71
2020/12/01 02:07:08;;;;;;;14.27;9.55;;;;;;;;;;6226417;28;20453;-71
2020/12/01 02:10:09;;;;;;;13.53;9.03;;;;;;;;;;6215768;28;20062;-73
2020/12/01 02:13:11;;;;;;;13.30;8.63;;;;;;;;;;6222323;28;20097;-71
2020/12/01 02:16:12;;;;;;;15.75;8.75;;;;;;;;;;6225020;28;20025;-72
2020/12/01 02:19:14;;;;;;;16.03;9.53;;;;;;;;;;6223553;28;20030;-72
2020/12/01 02:22:15;;;;;;;14.98;9.35;;;;;;;;;;6217185;28;20024;-72
2020/12/01 02:25:17;;;;;;;14.95;10.23;;;;;;;;;;6220935;28;20351;-71
2020/12/01 02:28:17;;;;;;;15.27;9.00;;;;;;;;;;6226641;28;20038;-71
2020/12/01 02:31:17;;;;;;;15.40;10.30;;;;;;;;;;6224349;28;20064;-71
2020/12/01 02:34:18;;;;;;;20.33;10.37;;;;;;;;;;6220791;28;20057;-71
2020/12/01 02:37:21;;;;;;;15.18;9.73;;;;;;;;;;6220858;28;20084;-72
2020/12/01 02:40:21;;;;;;;15.30;9.60;;;;;;;;;;6230827;28;20072;-71
2020/12/01 02:43:21;;;;;;;15.90;9.00;;;;;;;;;;6225401;28;20014;-72
2020/12/01 02:46:22;;;;;;;13.50;9.30;;;;;;;;;;6224676;28;20022;-71
2020/12/01 02:49:22;;;;;;;12.73;8.83;;;;;;;;;;6223483;28;20057;-71
2020/12/01 02:52:23;;;;;;;14.47;9.77;;;;;;;;;;6223841;28;20123;-71
2020/12/01 02:55:23;;;;;;;14.82;8.63;;;;;;;;;;6220588;28;20046;-73
2020/12/01 02:58:24;;;;;;;13.20;8.70;;;;;;;;;;6216245;28;20040;-71
2020/12/01 03:01:24;;;;;;;13.57;8.90;;;;;;;;;;6225813;28;20109;-71
2020/12/01 03:04:24;;;;;;;14.63;9.10;;;;;;;;;;6220062;28;20018;-71
2020/12/01 03:07:24;;;;;;;14.73;9.03;;;;;;;;;;6217715;28;20026;-72
2020/12/01 03:10:25;;;;;;;13.37;9.43;;;;;;;;;;6221977;28;20030;-73
2020/12/01 03:13:25;;;;;;;15.60;9.87;;;;;;;;;;6223177;28;20372;-72
2020/12/01 03:16:25;;;;;;;14.87;9.27;;;;;;;;;;6214328;28;20026;-71
2020/12/01 03:19:25;;;;;;;13.90;9.60;;;;;;;;;;6223036;28;20049;-74
2020/12/01 03:22:26;;;;;;;13.47;8.43;;;;;;;;;;6221286;28;20080;-71
2020/12/01 03:25:26;;;;;;;13.70;8.70;;;;;;;;;;6223983;28;20025;-71
2020/12/01 03:28:26;;;;;;;14.43;9.57;;;;;;;;;;6220169;28;20041;-74
2020/12/01 03:31:27;;;;;;;14.03;9.37;;;;;;;;;;6222651;28;20025;-74
2020/12/01 03:34:27;;;;;;;13.60;8.77;;;;;;;;;;6222306;28;20022;-73
2020/12/01 03:37:27;;;;;;;13.47;9.07;;;;;;;;;;6221277;28;20113;-73
2020/12/01 03:40:27;;;;;;;15.83;9.90;;;;;;;;;;6219961;28;20122;-73
2020/12/01 03:43:28;;;;;;;11.67;8.17;;;;;;;;;;6219785;28;20137;-74
2020/12/01 03:46:28;;;;;;;15.13;8.97;;;;;;;;;;6223749;28;20037;-73
2020/12/01 03:49:28;;;;;;;15.50;9.33;;;;;;;;;;6209984;28;20057;-73
2020/12/01 03:52:28;;;;;;;15.17;9.90;;;;;;;;;;6227392;28;20087;-73
2020/12/01 03:55:29;;;;;;;13.20;8.50;;;;;;;;;;6214638;28;20045;-73
2020/12/01 03:58:29;;;;;;;12.20;8.57;;;;;;;;;;6216796;28;20360;-73
2020/12/01 04:01:29;;;;;;;13.43;9.37;;;;;;;;;;6222927;28;20160;-73
2020/12/01 04:04:29;;;;;;;14.13;8.67;;;;;;;;;;6221026;28;20025;-73
2020/12/01 04:07:30;;;;;;;14.23;9.03;;;;;;;;;;6219775;28;20018;-73
2020/12/01 04:10:30;;;;;;;13.87;9.30;;;;;;;;;;6222396;28;20034;-73
2020/12/01 04:13:31;;;;;;;13.00;8.53;;;;;;;;;;6230621;28;20458;-73
2020/12/01 04:16:31;;;;;;;13.20;8.88;;;;;;;;;;6221030;28;20474;-73
2020/12/01 04:19:31;;;;;;;14.43;9.10;;;;;;;;;;6220702;28;20084;-73
2020/12/01 04:22:32;;;;;;;13.00;8.53;;;;;;;;;;6226453;28;20033;-73
2020/12/01 04:25:33;;;;;;;13.15;8.38;;;;;;;;;;6222771;28;20021;-73
2020/12/01 04:28:33;;;;;;;12.27;8.47;;;;;;;;;;6221344;28;20018;-73
2020/12/01 04:31:33;;;;;;;14.40;9.00;;;;;;;;;;6222207;28;20353;-73
2020/12/01 04:34:34;;;;;;;12.63;9.03;;;;;;;;;;6222490;28;20030;-73
2020/12/01 04:37:34;;;;;;;11.57;8.33;;;;;;;;;;6218476;28;20022;-73
2020/12/01 04:40:36;;;;;;;12.67;8.03;;;;;;;;;;6219488;28;20021;-73
2020/12/01 04:43:38;;;;;;;12.35;8.18;;;;;;;;;;6235421;28;20519;-73
2020/12/01 04:46:39;;;;;;;13.23;8.80;;;;;;;;;;6224965;28;20077;-73
2020/12/01 04:49:41;;;;;;;12.67;8.57;;;;;;;;;;6224636;28;20084;-73
2020/12/01 04:52:41;;;;;;;12.95;8.65;;;;;;;;;;6233899;28;20399;-73
2020/12/01 04:55:41;;;;;;;15.20;8.90;;;;;;;;;;6225304;28;20015;-73
2020/12/01 04:58:55;;;;;;;12.67;8.37;;;;;;;;;;6222906;28;20026;-73
2020/12/01 05:02:01;;;;;;;13.45;8.57;;;;;;;;;;6224406;28;20036;-70
2020/12/01 05:05:07;;;;;;;14.10;8.52;;;;;;;;;;6221373;28;20348;-73
2020/12/01 05:08:29;;;;;;;13.15;7.93;;;;;;;;;;6225671;28;20041;-73
2020/12/01 05:11:54;;;;;;;14.52;9.32;;;;;;;;;;6226604;28;20022;-73
2020/12/01 05:15:00;;;;;;;14.35;8.35;;;;;;;;;;6231836;28;20052;-74
2020/12/01 05:18:00;;;;;;;11.48;7.97;;;;;;;;;;6226953;28;20018;-75
2020/12/01 05:21:02;;;;;;;13.97;8.97;;;;;;;;;;6226460;28;20081;-71
2020/12/01 05:24:03;;;;;;;13.40;8.27;;;;;;;;;;6232125;28;20025;-72
2020/12/01 05:27:03;;;;;;;16.13;8.60;;;;;;;;;;6233514;28;20021;-71
2020/12/01 05:30:11;;;;;;;15.03;8.13;;;;;;;;;;6225049;28;20026;-73
2020/12/01 05:33:11;;;;;;;14.23;9.10;;;;;;;;;;6224903;28;20030;-74
2020/12/01 05:36:17;;;;;;;15.90;9.07;;;;;;;;;;6229773;28;20029;-70
2020/12/01 05:39:18;;;;;;;14.45;8.30;;;;;;;;;;6225435;28;20380;-72
2020/12/01 05:42:19;;;;;;;;;;;;;;;;;;6227222;28;20091;-69
2020/12/01 05:45:23;;;;;;;12.48;7.65;;;;;;;;;;6226328;28;20363;-70
2020/12/01 05:48:33;;;;;;;13.52;8.15;;;;;;;;;;6223239;28;20308;-71
2020/12/01 05:51:37;;;;;;;14.45;9.02;;;;;;;;;;6210361;28;20571;-71
2020/12/01 05:54:39;;;;;;;13.43;7.57;;;;;;;;;;6222549;28;20021;-72
2020/12/01 05:57:39;;;;;;;;;;;;;;;;;;6226997;28;20060;-73
2020/12/01 06:00:40;;;;;;;11.30;7.30;;;;;;;;;;6227079;28;20265;-72
2020/12/01 06:04:03;;;;;;;15.27;8.20;;;;;;;;;;6228082;28;20336;-72
2020/12/01 06:07:12;;;;;;;11.55;7.82;;;;;;;;;;6219167;28;20030;-67
2020/12/01 06:10:17;;;;;;;14.15;8.75;;;;;;;;;;6220601;28;20045;-72
2020/12/01 06:13:28;;;;;;;14.95;9.45;;;;;;;;;;6228531;28;20116;-68
2020/12/01 06:16:50;;;;;;;13.57;8.88;;;;;;;;;;6217343;28;20021;-68
2020/12/01 06:19:57;;;;;;;13.07;8.82;;;;;;;;;;6215274;28;20032;-68
2020/12/01 06:23:12;;;;;;;12.48;8.27;;;;;;;;;;6223169;28;20356;-68
2020/12/01 06:26:24;;;;;;;13.63;8.32;;;;;;;;;;6227073;28;20041;-68
2020/12/01 06:29:42;;;;;;;13.57;8.35;;;;;;;;;;6225772;28;20502;-68
2020/12/01 06:33:01;;;;;;;12.32;7.68;;;;;;;;;;6233038;28;20030;-68
2020/12/01 06:36:04;;;;;;;11.95;8.02;;;;;;;;;;6227556;28;20028;-68
2020/12/01 06:39:16;;;;;;;12.75;8.18;;;;;;;;;;6226765;28;20249;-68
2020/12/01 06:42:40;;;;;;;12.80;8.10;;;;;;;;;;6228236;28;20018;-68
2020/12/01 06:45:40;;;;;;;13.85;7.95;;;;;;;;;;6229351;28;20116;-68
2020/12/01 06:48:42;;;;;;;14.23;8.63;;;;;;;;;;6226752;28;20025;-68
2020/12/01 06:51:47;;;;;;;12.40;7.95;;;;;;;;;;6215422;28;20033;-68
2020/12/01 06:54:55;;;;;;;11.95;7.88;;;;;;;;;;6224176;28;20038;-68
2020/12/01 06:58:05;;;;;;;14.15;8.88;;;;;;;;;;6222341;28;20028;-68
2020/12/01 07:01:10;;;;;;;15.73;8.88;;;;;;;;;;6225705;28;20030;-69
2020/12/01 07:04:14;;;;;;;14.60;7.97;;;;;;;;;;6232725;28;20117;-68
2020/12/01 07:07:28;;;;;;;12.05;8.40;;;;;;;;;;6226147;28;20020;-68
2020/12/01 07:10:30;;;;;;;12.85;7.93;;;;;;;;;;6226611;28;20333;-68
2020/12/01 07:13:39;;;;;;;14.65;9.05;;;;;;;;;;6229780;28;20026;-68
2020/12/01 07:16:44;;;;;;;13.32;8.63;;;;;;;;;;6233581;28;20025;-68
2020/12/01 07:19:53;;;;;;;14.80;8.73;;;;;;;;;;6226532;28;20087;-68
2020/12/01 07:23:02;;;;;;;15.73;8.90;;;;;;;;;;6225081;28;20022;-68
2020/12/01 07:26:03;;;;;;;12.57;8.45;;;;;;;;;;6231336;28;20022;-68
2020/12/01 07:29:19;;;;;;;12.33;8.80;;;;;;;;;;6218683;28;20027;-68
2020/12/01 07:32:22;;;;;;;13.48;8.25;;;;;;;;;;6225127;28;20100;-68
2020/12/01 07:35:29;;;;;;;14.27;9.05;;;;;;;;;;6235304;28;20029;-69
2020/12/01 07:38:37;;;;;;;14.13;8.95;;;;;;;;;;6224390;28;20421;-68
2020/12/01 07:41:45;;;;;;;13.10;8.77;;;;;;;;;;6226125;28;20372;-68
2020/12/01 07:44:45;;;;;;;15.55;9.02;;;;;;;;;;6225527;28;20024;-68
2020/12/01 07:47:53;;;;;;;15.17;9.23;;;;;;;;;;6220027;28;20025;-68
2020/12/01 07:51:08;;;;;;;14.40;8.25;;;;;;;;;;6225577;28;20384;-68
2020/12/01 07:54:08;;;;;;;13.02;8.32;;;;;;;;;;6225582;28;20383;-68
2020/12/01 07:57:13;;;;;;;14.10;9.37;;;;;;;;;;6213812;28;20077;-68
2020/12/01 08:00:16;;;;;;;13.45;8.55;;;;;;;;;;6225694;28;20041;-68
2020/12/01 08:03:21;;;;;;;12.98;9.00;;;;;;;;;;6225523;28;20049;-68
2020/12/01 08:06:21;;;;;;;17.30;9.02;;;;;;;;;;6222419;28;20061;-68
2020/12/01 08:09:23;;;;;;;15.80;9.37;;;;;;;;;;6225629;28;20383;-68
2020/12/01 08:12:23;;;;;;;;;;;;;;;;;;6225242;28;20096;-68
2020/12/01 08:15:23;;;;;;;12.35;7.75;;;;;;;;;;6225597;28;19920;-68
2020/12/01 08:18:24;;;;;;;10.73;7.87;;;;;;;;;;6229631;28;20038;-68
2020/12/01 08:21:38;;;;;;;17.23;8.77;;;;;;;;;;6217979;28;20022;-68
2020/12/01 08:24:39;;;;;;;12.13;8.25;;;;;;;;;;6224823;28;20025;-68
2020/12/01 08:28:09;;;;;;;13.63;9.32;;;;;;;;;;6234048;28;20029;-68
2020/12/01 08:31:25;;;;;;;12.77;8.45;;;;;;;;;;6227779;28;20034;-68
2020/12/01 08:34:36;;;;;;;12.60;8.10;;;;;;;;;;6214708;28;20029;-68
2020/12/01 08:37:46;;;;;;;14.07;8.50;;;;;;;;;;6225524;28;20032;-68
2020/12/01 08:40:55;;;;;;;14.15;8.73;;;;;;;;;;6214604;28;20466;-68
2020/12/01 08:44:00;;;;;;;14.60;8.75;;;;;;;;;;6225724;28;20010;-68
2020/12/01 08:47:01;;;;;;;13.98;9.32;;;;;;;;;;6226973;28;20028;-68
2020/12/01 08:50:11;;;;;;;12.73;8.32;;;;;;;;;;6224986;28;20053;-68
2020/12/01 08:53:13;;;;;;;13.80;9.43;;;;;;;;;;6214380;28;20026;-68
2020/12/01 08:56:20;;;;;;;17.25;8.77;;;;;;;;;;6219580;28;20444;-69
2020/12/01 08:59:27;;;;;;;13.23;8.57;;;;;;;;;;6236186;28;20409;-68
2020/12/01 09:02:35;;;;;;;13.18;9.15;;;;;;;;;;6225139;28;20100;-68
2020/12/01 09:05:37;;;;;;;14.18;8.85;;;;;;;;;;6225406;28;20341;-68
2020/12/01 09:08:44;;;;;;;13.27;8.57;;;;;;;;;;6226185;28;20033;-68
2020/12/01 09:15:11;;;;;;;13.75;8.75;;;;;;;;;;6225814;28;20026;-69
2020/12/01 09:24:45;;;;;;;14.40;8.93;;;;;;;;;;6225358;28;20022;-68
2020/12/01 09:27:46;;;;;;;14.70;9.60;;;;;;;;;;6227540;28;20058;-68
2020/12/01 09:30:47;;;;;;;14.25;9.02;;;;;;;;;;6218551;28;20346;-68
2020/12/01 09:33:47;;;;;;;17.23;9.73;;;;;;;;;;6229147;28;20022;-68
2020/12/01 09:36:47;;;;;;;12.67;8.53;;;;;;;;;;6228757;28;20049;-68
2020/12/01 09:39:48;;;;;;;16.50;9.87;;;;;;;;;;6236968;28;20444;-69
2020/12/01 09:42:51;;;;;;;14.27;9.57;;;;;;;;;;6229201;28;20014;-68
2020/12/01 09:45:53;;;;;;;17.23;9.05;;;;;;;;;;6227258;28;20028;-68
2020/12/01 09:48:53;;;;;;;17.08;8.88;;;;;;;;;;6231088;28;20375;-68
2020/12/01 09:52:00;;;;;;;13.20;8.83;;;;;;;;;;6228727;28;20033;-68
2020/12/01 09:55:09;;;;;;;15.57;9.23;;;;;;;;;;6228382;28;20026;-69
2020/12/01 10:07:51;;;;;;;15.55;9.20;;;;;;;;;;6225047;28;20024;-68
2020/12/01 10:36:55;;;;;;;18.38;10.27;;;;;;;;;;6227688;28;20444;-69
2020/12/01 10:39:55;;;;;;;18.77;9.77;;;;;;;;;;6227672;28;20084;-69
2020/12/01 10:42:56;;;;;;;15.30;9.33;;;;;;;;;;6238790;28;20084;-69
2020/12/01 10:45:56;;;;;;;17.20;10.33;;;;;;;;;;6227164;28;20037;-68
2020/12/01 10:48:56;;;;;;;17.43;9.60;;;;;;;;;;6227587;28;20264;-69
2020/12/01 10:51:57;;;;;;;17.40;9.90;;;;;;;;;;6226429;28;20084;-68
2020/12/01 10:54:57;;;;;;;18.40;10.07;;;;;;;;;;6223766;28;20104;-69
2020/12/01 10:57:57;;;;;;;17.97;10.40;;;;;;;;;;6228358;28;20104;-69
2020/12/01 11:00:58;;;;;;;18.57;9.97;;;;;;;;;;6228258;28;20030;-69
2020/12/01 11:03:58;;;;;;;16.20;10.03;;;;;;;;;;6235948;28;20052;-68
2020/12/01 11:06:58;;;;;;;17.23;10.23;;;;;;;;;;6228032;28;20020;-69
2020/12/01 11:09:59;;;;;;;19.27;10.77;;;;;;;;;;6226097;28;20040;-69
2020/12/01 11:12:59;;;;;;;18.23;10.73;;;;;;;;;;6239693;28;20086;-69
2020/12/01 11:15:59;;;;;;;22.57;11.43;;;;;;;;;;6229263;28;20384;-69
2020/12/01 11:18:59;;;;;;;18.57;11.33;;;;;;;;;;6227612;28;20383;-69
2020/12/01 11:21:59;;;;;;;18.40;10.13;;;;;;;;;;6228998;28;20396;-69
2020/12/01 11:25:00;;;;;;;21.97;10.97;;;;;;;;;;6226990;28;20028;-69
2020/12/01 11:28:00;;;;;;;16.07;10.20;;;;;;;;;;6207575;28;20132;-69
2020/12/01 11:31:00;;;;;;;18.73;10.87;;;;;;;;;;6226670;28;20033;-69
2020/12/01 11:34:07;;;;;;;15.47;9.93;;;;;;;;;;6227104;28;20026;-69
2020/12/01 11:37:07;;;;;;;15.82;10.18;;;;;;;;;;6218811;28;20030;-69
2020/12/01 11:40:09;;;;;;;16.27;9.60;;;;;;;;;;6226207;28;20025;-69
2020/12/01 11:43:09;;;;;;;18.52;10.70;;;;;;;;;;6229003;28;20411;-69
2020/12/01 11:46:09;;;;;;;17.40;9.70;;;;;;;;;;6224875;28;20034;-69
2020/12/01 11:49:10;;;;;;;15.60;10.13;;;;;;;;;;6226572;28;20444;-69
2020/12/01 11:52:10;;;;;;;18.33;10.83;;;;;;;;;;6227410;28;20049;-69
2020/12/01 11:55:11;;;;;;;16.03;10.00;;;;;;;;;;6227606;28;20061;-69
2020/12/01 11:58:11;;;;;;;17.73;10.17;;;;;;;;;;6226701;28;20029;-69
2020/12/01 12:01:11;;;;;;;16.70;10.23;;;;;;;;;;6226221;28;20041;-69
2020/12/01 12:04:11;;;;;;;15.63;10.27;;;;;;;;;;6228682;28;20029;-69
2020/12/01 12:07:12;;;;;;;16.67;10.23;;;;;;;;;;6227266;28;20455;-69
2020/12/01 12:10:12;;;;;;;17.30;10.97;;;;;;;;;;6226671;28;20044;-69
2020/12/01 12:13:12;;;;;;;18.20;10.20;;;;;;;;;;6227419;28;20325;-69
2020/12/01 12:16:14;;;;;;;17.27;10.10;;;;;;;;;;6228792;28;20025;-69
2020/12/01 12:19:14;;;;;;;17.25;10.30;;;;;;;;;;6225346;28;20117;-69
2020/12/01 12:22:15;;;;;;;15.47;9.97;;;;;;;;;;6227866;28;20028;-69
2020/12/01 12:25:15;;;;;;;17.73;10.57;;;;;;;;;;6227749;28;20360;-69
2020/12/01 12:28:15;;;;;;;14.43;8.47;;;;;;;;;;6215462;28;20018;-69
2020/12/01 12:31:17;;;;;;;16.87;9.80;;;;;;;;;;6225097;28;20045;-69
2020/12/01 12:34:17;;;;;;;15.02;9.65;;;;;;;;;;6225897;28;20030;-69
2020/12/01 12:37:18;;;;;;;16.60;10.77;;;;;;;;;;6216189;28;20068;-69
2020/12/01 12:40:18;;;;;;;16.53;10.00;;;;;;;;;;6224956;28;20030;-69
2020/12/01 12:43:19;;;;;;;16.20;9.53;;;;;;;;;;6226472;28;20021;-69
2020/12/01 12:46:20;;;;;;;18.77;10.45;;;;;;;;;;6234757;28;20474;-69
2020/12/01 12:49:20;;;;;;;15.83;10.43;;;;;;;;;;6225545;28;20022;-69
2020/12/01 12:52:20;;;;;;;18.83;11.00;;;;;;;;;;6224771;28;20018;-69
2020/12/01 12:55:20;;;;;;;18.53;10.90;;;;;;;;;;6226262;28;20029;-69
2020/12/01 12:58:21;;;;;;;16.37;9.80;;;;;;;;;;6237604;28;20025;-69
2020/12/01 13:01:21;;;;;;;16.00;9.77;;;;;;;;;;6227826;28;20049;-69
2020/12/01 13:04:22;;;;;;;16.87;10.70;;;;;;;;;;6231813;28;20261;-69
2020/12/01 13:07:22;;;;;;;16.20;10.30;;;;;;;;;;6239997;28;20117;-69
2020/12/01 13:10:23;;;;;;;15.87;10.77;;;;;;;;;;6230008;28;20088;-69
2020/12/01 13:13:23;;;;;;;16.87;10.97;;;;;;;;;;6231408;28;20364;-69
2020/12/01 13:16:23;;;;;;;16.87;11.43;;;;;;;;;;6232347;28;20452;-69
2020/12/01 13:19:23;;;;;;;16.60;10.27;;;;;;;;;;6229054;28;20040;-69
2020/12/01 13:22:24;;;;;;;16.60;10.57;;;;;;;;;;6230401;28;20429;-69
2020/12/01 13:25:24;;;;;;;18.30;10.47;;;;;;;;;;6229913;28;20427;-69
2020/12/01 13:28:24;;;;;;;17.63;11.27;;;;;;;;;;6230924;28;20053;-69
2020/12/01 13:31:25;;;;;;;17.37;11.23;;;;;;;;;;6230758;28;20056;-69
2020/12/01 13:34:25;;;;;;;18.23;10.43;;;;;;;;;;6230682;28;20107;-69
2020/12/01 13:37:26;;;;;;;14.53;9.60;;;;;;;;;;6231644;28;20030;-69
2020/12/01 13:40:26;;;;;;;16.58;10.93;;;;;;;;;;6218080;28;20019;-69
2020/12/01 13:43:26;;;;;;;15.73;10.20;;;;;;;;;;6229283;28;20033;-69
2020/12/01 13:46:27;;;;;;;15.20;10.20;;;;;;;;;;6229648;28;20030;-69
2020/12/01 13:49:27;;;;;;;16.30;10.93;;;;;;;;;;6241092;28;20022;-68
2020/12/01 13:52:27;;;;;;;14.70;9.50;;;;;;;;;;6229544;28;20029;-69
2020/12/01 13:55:28;;;;;;;17.43;10.20;;;;;;;;;;6227615;28;20030;-69
2020/12/01 13:58:28;;;;;;;15.50;10.33;;;;;;;;;;6223669;28;20021;-69
2020/12/01 14:01:28;;;;;;;17.10;10.20;;;;;;;;;;6226144;28;20026;-69
2020/12/01 14:04:29;;;;;;;15.53;9.73;;;;;;;;;;6227648;28;20033;-69
2020/12/01 14:07:29;;;;;;;15.07;10.53;;;;;;;;;;6228162;28;20460;-68
2020/12/01 14:10:30;;;;;;;18.27;9.90;;;;;;;;;;6231011;28;20506;-68
2020/12/01 14:13:30;;;;;;;16.43;10.17;;;;;;;;;;6226583;28;20026;-68
2020/12/01 14:16:30;;;;;;;16.00;10.17;;;;;;;;;;6227650;28;20037;-69
2020/12/01 14:19:31;;;;;;;15.73;9.97;;;;;;;;;;6231294;28;20030;-69
2020/12/01 14:22:31;;;;;;;15.40;9.23;;;;;;;;;;6226889;28;20116;-68
2020/12/01 14:25:31;;;;;;;14.70;9.97;;;;;;;;;;6227603;28;20468;-69
2020/12/01 14:28:31;;;;;;;14.63;9.67;;;;;;;;;;6228311;28;20510;-68
2020/12/01 14:31:32;;;;;;;14.37;9.93;;;;;;;;;;6234808;28;20014;-69
2020/12/01 14:34:32;;;;;;;15.97;10.23;;;;;;;;;;6226128;28;20456;-67
2020/12/01 14:37:33;;;;;;;15.20;9.33;;;;;;;;;;6226315;28;20029;-67
2020/12/01 14:40:33;;;;;;;16.70;9.70;;;;;;;;;;6225798;28;20018;-70
2020/12/01 14:43:35;;;;;;;14.30;9.47;;;;;;;;;;6228975;28;20049;-69
2020/12/01 14:46:48;;;;;;;16.35;9.90;;;;;;;;;;6230734;28;20453;-70
2020/12/01 14:50:13;;;;;;;16.50;10.27;;;;;;;;;;6227755;28;20033;-69
2020/12/01 14:53:18;;;;;;;16.65;9.52;;;;;;;;;;6229538;28;20022;-70
2020/12/01 14:56:22;;;;;;;17.20;10.40;;;;;;;;;;6229260;28;20037;-69
2020/12/01 14:59:41;;;;;;;16.05;9.57;;;;;;;;;;6225807;28;20033;-68
2020/12/01 15:02:53;;;;;;;14.88;9.70;;;;;;;;;;6228751;28;20356;-70
2020/12/01 15:06:00;;;;;;;15.75;9.52;;;;;;;;;;6227278;28;20014;-70
2020/12/01 15:09:00;;;;;;;15.98;9.07;;;;;;;;;;6224647;28;20042;-69
2020/12/01 15:12:05;;;;;;;14.07;9.20;;;;;;;;;;6237997;28;20139;-69
2020/12/01 15:15:10;;;;;;;14.05;9.13;;;;;;;;;;6228542;28;20101;-70
2020/12/01 15:18:12;;;;;;;12.85;9.15;;;;;;;;;;6228676;28;20025;-70
2020/12/01 15:21:14;;;;;;;14.77;8.85;;;;;;;;;;6233203;28;20032;-71
2020/12/01 15:24:17;;;;;;;16.13;8.90;;;;;;;;;;6228215;28;20018;-70
2020/12/01 15:27:20;;;;;;;14.95;8.77;;;;;;;;;;6220510;28;20324;-70
2020/12/01 15:30:21;;;;;;;16.00;9.93;;;;;;;;;;6231114;28;20034;-70
2020/12/01 15:33:23;;;;;;;14.15;8.90;;;;;;;;;;5874497;28;10000011;-70
2020/12/01 15:36:23;;;;;;;;;;;;;;;;;;6228262;28;20028;-70
2020/12/01 15:39:24;;;;;;;13.40;8.45;;;;;;;;;;6217657;28;20339;-70
2020/12/01 15:42:24;;;;;;;16.23;9.33;;;;;;;;;;6224285;28;20054;-70
2020/12/01 15:45:25;;;;;;;15.37;9.47;;;;;;;;;;6226155;28;20387;-70
2020/12/01 15:48:27;;;;;;;13.85;8.85;;;;;;;;;;6234963;28;20027;-70
2020/12/01 15:51:46;;;;;;;17.27;10.43;;;;;;;;;;6228157;28;20068;-70
2020/12/01 15:54:52;;;;;;;15.40;9.57;;;;;;;;;;6233746;28;20040;-70
2020/12/01 15:57:52;;;;;;;14.90;9.40;;;;;;;;;;6215260;28;20025;-70
2020/12/01 16:01:04;;;;;;;14.30;9.03;;;;;;;;;;6206710;28;20112;-70
2020/12/01 16:04:10;;;;;;;18.25;10.63;;;;;;;;;;6223984;28;20026;-70
2020/12/01 16:07:28;;;;;;;18.15;10.60;;;;;;;;;;6227879;28;20037;-70
2020/12/01 16:10:35;;;;;;;17.90;10.20;;;;;;;;;;6225839;28;20029;-70
2020/12/01 16:13:41;;;;;;;18.20;10.85;;;;;;;;;;6226941;28;20029;-70
2020/12/01 16:16:50;;;;;;;20.30;11.48;;;;;;;;;;6223407;28;20030;-70
2020/12/01 16:19:56;;;;;;;19.85;11.02;;;;;;;;;;6217602;28;20037;-70
2020/12/01 16:22:56;;;;;;;19.13;11.57;;;;;;;;;;6215028;28;20022;-70
2020/12/01 16:25:57;;;;;;;19.07;11.50;;;;;;;;;;6218390;28;20041;-69
2020/12/01 16:29:07;;;;;;;17.33;11.13;;;;;;;;;;6223092;28;20030;-69
2020/12/01 16:32:08;;;;;;;20.27;12.63;;;;;;;;;;6223249;28;20116;-69
2020/12/01 16:35:11;;;;;;;17.73;11.52;;;;;;;;;;6230335;28;20460;-69
2020/12/01 16:38:24;;;;;;;20.75;12.73;;;;;;;;;;6228440;28;20029;-69
2020/12/01 16:41:25;;;;;;;21.55;12.32;;;;;;;;;;6222937;28;20154;-69
2020/12/01 16:44:25;;;;;;;20.23;11.68;;;;;;;;;;6219930;28;20024;-69
2020/12/01 16:47:29;;;;;;;17.43;11.00;;;;;;;;;;6224914;28;20029;-69
2020/12/01 16:50:33;;;;;;;19.15;11.55;;;;;;;;;;6227031;28;20451;-69
2020/12/01 16:53:36;;;;;;;18.88;11.00;;;;;;;;;;6228880;28;20022;-69
2020/12/01 16:56:43;;;;;;;18.67;11.63;;;;;;;;;;6234759;28;20140;-69
2020/12/01 16:59:46;;;;;;;18.80;11.07;;;;;;;;;;6228318;28;20030;-69
2020/12/01 17:03:02;;;;;;;18.55;11.82;;;;;;;;;;6227484;28;20018;-69
2020/12/01 17:06:05;;;;;;;17.45;10.93;;;;;;;;;;6229735;28;20475;-68
2020/12/01 17:09:05;;;;;;;15.90;10.00;;;;;;;;;;6225033;28;20022;-69
2020/12/01 17:12:11;;;;;;;18.67;10.43;;;;;;;;;;6215373;28;20033;-67
2020/12/01 17:15:30;;;;;;;19.10;11.05;;;;;;;;;;6209892;28;20387;-67
2020/12/01 17:18:31;;;;;;;16.67;9.77;;;;;;;;;;6226347;28;20037;-67
2020/12/01 17:21:31;;;;;;;16.60;10.63;;;;;;;;;;6225332;28;20097;-67
2020/12/01 17:24:33;;;;;;;17.00;10.70;;;;;;;;;;6231151;28;20014;-69
2020/12/01 17:27:33;;;;;;;;;;;;;;;;;;6246423;28;20479;-69
2020/12/01 17:30:36;;;;;;;17.20;9.48;;;;;;;;;;6241549;28;19909;-68
2020/12/01 17:33:36;;;;;;;17.75;10.18;;;;;;;;;;6235792;28;20105;-71
2020/12/01 17:36:51;;;;;;;19.93;10.70;;;;;;;;;;6225864;28;20022;-69
2020/12/01 17:39:59;;;;;;;18.88;11.45;;;;;;;;;;6233130;28;20471;-69
2020/12/01 17:43:19;;;;;;;18.85;11.52;;;;;;;;;;6235261;28;20021;-67
2020/12/01 17:46:29;;;;;;;17.90;11.30;;;;;;;;;;6241100;28;20086;-68
2020/12/01 17:49:32;;;;;;;17.10;11.15;;;;;;;;;;6241517;28;20473;-69
2020/12/01 17:52:35;;;;;;;17.67;11.38;;;;;;;;;;6227940;28;20459;-69
2020/12/01 17:55:35;;;;;;;16.80;11.00;;;;;;;;;;6225246;28;20088;-67
2020/12/01 17:58:36;;;;;;;17.37;10.87;;;;;;;;;;6222683;28;20042;-66
2020/12/01 18:01:38;;;;;;;17.85;10.02;;;;;;;;;;6225449;28;20074;-66
2020/12/01 18:04:38;;;;;;;;;;;;;;;;;;6225277;28;20113;-66
2020/12/01 18:07:39;;;;;;;16.60;9.10;;;;;;;;;;6224031;28;20347;-63
2020/12/01 18:10:39;;;;;;;16.93;10.47;;;;;;;;;;6221955;28;20025;-70
2020/12/01 18:13:51;;;;;;;16.57;10.27;;;;;;;;;;6221000;28;20029;-64
2020/12/01 18:17:00;;;;;;;17.88;11.23;;;;;;;;;;6224630;28;20037;-69
2020/12/01 18:20:19;;;;;;;17.90;10.73;;;;;;;;;;6224208;28;20037;-68
2020/12/01 18:23:22;;;;;;;21.25;10.98;;;;;;;;;;6221581;28;20448;-67
2020/12/01 18:26:41;;;;;;;20.02;11.55;;;;;;;;;;6220137;28;20033;-67
2020/12/01 18:29:57;;;;;;;19.08;11.63;;;;;;;;;;6218769;28;20065;-63
2020/12/01 18:33:20;;;;;;;19.80;11.32;;;;;;;;;;6217290;28;20109;-63
2020/12/01 18:36:20;;;;;;;20.02;11.60;;;;;;;;;;6220126;28;20057;-68
2020/12/01 18:39:21;;;;;;;20.30;10.80;;;;;;;;;;6218415;28;20470;-69
2020/12/01 18:42:23;;;;;;;18.10;10.83;;;;;;;;;;6218151;28;20033;-66
2020/12/01 18:45:29;;;;;;;19.95;11.48;;;;;;;;;;6215285;28;20056;-68